createdAt,value
2019-05-21T00:02:07.708Z,99321.95
2019-05-21T00:04:34.714Z,99317.48
2019-05-21T00:07:02.231Z,99321.28
2019-05-21T00:09:30.284Z,99322.58
2019-05-21T00:11:57.319Z,99324.00
2019-05-21T00:14:24.440Z,99309.19
2019-05-21T00:16:51.836Z,99315.50
2019-05-21T00:19:19.669Z,99318.86
2019-05-21T00:21:46.675Z,99312.61
2019-05-21T00:24:15.035Z,99315.02
2019-05-21T00:26:42.223Z,99306.72
2019-05-21T00:29:46.083Z,99310.27
2019-05-21T00:32:49.906Z,99311.94
2019-05-21T00:35:53.972Z,99309.92
2019-05-21T00:38:58.041Z,99307.05
2019-05-21T00:42:03.836Z,99307.79
2019-05-21T00:44:34.505Z,99299.44
2019-05-21T00:47:02.506Z,99302.64
2019-05-21T00:49:29.556Z,99301.61
2019-05-21T00:52:06.880Z,99302.91
2019-05-21T00:54:25.480Z,99299.27
2019-05-21T00:56:52.603Z,99301.67
2019-05-21T00:59:19.893Z,99303.33
2019-05-21T01:01:46.958Z,99307.98
2019-05-21T01:04:14.013Z,99303.72
2019-05-21T01:06:41.131Z,99303.98
2019-05-21T01:09:08.146Z,99294.87
2019-05-21T01:11:35.267Z,99293.09
2019-05-21T01:14:02.428Z,99294.52
2019-05-21T01:16:29.427Z,99289.36
2019-05-21T01:18:56.516Z,99299.87
2019-05-21T01:21:23.490Z,99293.83
2019-05-21T01:23:50.489Z,99292.88
2019-05-21T01:26:18.576Z,99290.95
2019-05-21T01:28:45.618Z,99296.80
2019-05-21T01:31:12.664Z,99294.98
2019-05-21T01:33:39.727Z,99295.34
2019-05-21T01:36:06.687Z,99292.27
2019-05-21T01:38:33.680Z,99297.00
2019-05-21T01:41:00.743Z,99291.78
2019-05-21T01:43:28.055Z,99293.21
2019-05-21T01:45:55.087Z,99291.70
2019-05-21T01:48:22.092Z,99292.53
2019-05-21T01:50:49.354Z,99291.08
2019-05-21T01:53:16.437Z,99285.55
2019-05-21T01:55:43.546Z,99282.88
2019-05-21T01:58:11.799Z,99279.23
2019-05-21T02:00:38.861Z,99275.14
2019-05-21T02:03:05.847Z,99282.75
2019-05-21T02:05:33.657Z,99280.00
2019-05-21T02:08:00.789Z,99276.83
2019-05-21T02:10:27.827Z,99275.53
2019-05-21T02:12:54.813Z,99268.61
2019-05-21T02:15:21.799Z,99259.81
2019-05-21T02:17:48.846Z,99254.75
2019-05-21T02:20:15.864Z,99260.50
2019-05-21T02:22:42.953Z,99252.69
2019-05-21T02:25:10.021Z,99253.07
2019-05-21T02:27:37.046Z,99256.77
2019-05-21T02:30:06.345Z,99258.70
2019-05-21T02:32:34.140Z,99259.73
2019-05-21T02:35:02.042Z,99258.23
2019-05-21T02:37:29.122Z,99252.69
2019-05-21T02:39:56.281Z,99253.84
2019-05-21T02:42:23.294Z,99259.41
2019-05-21T02:44:54.176Z,99250.09
2019-05-21T02:47:20.551Z,99254.47
2019-05-21T02:49:47.524Z,99256.04
2019-05-21T02:52:14.525Z,99249.08
2019-05-21T02:54:42.098Z,99232.39
2019-05-21T02:57:09.225Z,99239.17
2019-05-21T02:59:36.952Z,99246.74
2019-05-21T03:02:13.392Z,99240.02
2019-05-21T03:04:40.454Z,99249.61
2019-05-21T03:07:19.635Z,99242.62
2019-05-21T03:09:49.624Z,99255.80
2019-05-21T03:12:16.806Z,99249.41
2019-05-21T03:14:44.540Z,99260.30
2019-05-21T03:17:11.544Z,99262.07
2019-05-21T03:19:38.564Z,99259.14
2019-05-21T03:22:05.626Z,99261.74
2019-05-21T03:24:32.705Z,99258.41
2019-05-21T03:26:59.703Z,99249.20
2019-05-21T03:29:26.767Z,99246.13
2019-05-21T03:31:53.773Z,99239.41
2019-05-21T03:34:20.810Z,99239.17
2019-05-21T03:36:47.921Z,99239.41
2019-05-21T03:39:19.122Z,99248.75
2019-05-21T03:41:43.855Z,99254.20
2019-05-21T03:44:10.900Z,99256.45
2019-05-21T03:46:37.988Z,99259.31
2019-05-21T03:49:05.028Z,99272.59
2019-05-21T03:51:32.249Z,99273.53
2019-05-21T03:53:59.278Z,99283.73
2019-05-21T03:56:26.272Z,99273.23
2019-05-21T03:58:53.379Z,99270.98
2019-05-21T04:01:20.460Z,99278.11
2019-05-21T04:03:47.477Z,99285.56
2019-05-21T04:06:15.296Z,99276.92
2019-05-21T04:08:42.359Z,99277.70
2019-05-21T04:11:09.426Z,99279.63
2019-05-21T04:13:36.504Z,99274.27
2019-05-21T04:16:13.188Z,99270.25
2019-05-21T04:19:02.013Z,99269.80
2019-05-21T04:21:29.015Z,99265.89
2019-05-21T04:23:56.047Z,99258.92
2019-05-21T04:26:23.161Z,99254.16
2019-05-21T04:28:50.202Z,99252.97
2019-05-21T04:31:17.199Z,99253.80
2019-05-21T04:33:44.505Z,99255.67
2019-05-21T04:36:11.572Z,99269.63
2019-05-21T04:38:38.633Z,99270.37
2019-05-21T04:41:05.748Z,99270.73
2019-05-21T04:43:32.804Z,99272.03
2019-05-21T04:45:59.910Z,99268.03
2019-05-21T04:48:27.102Z,99275.01
2019-05-21T04:50:54.169Z,99274.06
2019-05-21T04:53:21.131Z,99276.31
2019-05-21T04:55:48.344Z,99280.15
2019-05-21T04:58:15.528Z,99286.30
2019-05-21T05:00:42.751Z,99287.50
2019-05-21T05:03:11.269Z,99292.14
2019-05-21T05:05:38.314Z,99287.08
2019-05-21T05:08:05.381Z,99292.39
2019-05-21T05:10:32.602Z,99295.88
2019-05-21T05:12:59.699Z,99292.23
2019-05-21T05:15:26.750Z,99298.16
2019-05-21T05:17:53.870Z,99286.45
2019-05-21T05:20:20.881Z,99287.06
2019-05-21T05:22:47.932Z,99289.68
2019-05-21T05:25:14.996Z,99282.69
2019-05-21T05:27:42.040Z,99293.33
2019-05-21T05:30:10.037Z,99282.55
2019-05-21T05:32:37.066Z,99291.54
2019-05-21T05:35:04.313Z,99287.06
2019-05-21T05:37:43.332Z,99286.59
2019-05-21T05:40:00.281Z,99288.27
2019-05-21T05:42:27.296Z,99291.55
2019-05-21T05:44:54.367Z,99283.48
2019-05-21T05:47:21.523Z,99286.45
2019-05-21T05:49:51.370Z,99282.02
2019-05-21T05:52:18.446Z,99280.20
2019-05-21T05:54:45.480Z,99289.31
2019-05-21T05:57:12.641Z,99287.44
2019-05-21T05:59:39.813Z,99290.36
2019-05-21T06:02:06.803Z,99303.88
2019-05-21T06:04:33.787Z,99302.36
2019-05-21T06:07:00.809Z,99314.86
2019-05-21T06:09:27.879Z,99318.14
2019-05-21T06:11:54.977Z,99316.63
2019-05-21T06:14:22.010Z,99310.59
2019-05-21T06:16:49.119Z,99319.80
2019-05-21T06:19:16.172Z,99320.38
2019-05-21T06:21:43.223Z,99323.45
2019-05-21T06:24:13.460Z,99319.08
2019-05-21T06:26:39.495Z,99320.95
2019-05-21T06:29:06.520Z,99322.20
2019-05-21T06:31:34.408Z,99321.86
2019-05-21T06:34:01.628Z,99327.21
2019-05-21T06:36:31.581Z,99329.72
2019-05-21T06:38:59.616Z,99340.86
2019-05-21T06:41:26.611Z,99339.13
2019-05-21T06:43:53.789Z,99340.53
2019-05-21T06:46:20.899Z,99347.51
2019-05-21T06:48:48.027Z,99352.50
2019-05-21T06:51:15.057Z,99356.88
2019-05-21T06:53:42.175Z,99354.13
2019-05-21T06:56:09.157Z,99360.52
2019-05-21T06:58:37.953Z,99358.07
2019-05-21T07:01:05.003Z,99348.23
2019-05-21T07:03:32.015Z,99353.55
2019-05-21T07:05:59.630Z,99361.34
2019-05-21T07:08:34.451Z,99356.47
2019-05-21T07:10:55.642Z,99375.52
2019-05-21T07:13:22.654Z,99364.52
2019-05-21T07:15:49.673Z,99371.94
2019-05-21T07:18:16.687Z,99368.45
2019-05-21T07:20:43.798Z,99363.09
2019-05-21T07:23:10.876Z,99364.97
2019-05-21T07:25:39.958Z,99382.46
2019-05-21T07:28:06.961Z,99374.66
2019-05-21T07:30:34.218Z,99387.20
2019-05-21T07:33:01.473Z,99391.05
2019-05-21T07:35:28.767Z,99388.66
2019-05-21T07:37:55.855Z,99389.59
2019-05-21T07:40:24.187Z,99393.50
2019-05-21T07:42:51.238Z,99395.89
2019-05-21T07:45:19.221Z,99396.41
2019-05-21T07:47:46.259Z,99402.46
2019-05-21T07:50:13.428Z,99410.69
2019-05-21T07:52:40.713Z,99404.23
2019-05-21T07:55:07.920Z,99407.66
2019-05-21T07:57:44.411Z,99411.31
2019-05-21T08:00:35.154Z,99414.77
2019-05-21T08:03:02.412Z,99416.84
2019-05-21T08:05:29.651Z,99413.69
2019-05-21T08:07:57.410Z,99423.02
2019-05-21T08:10:24.728Z,99426.78
2019-05-21T08:12:52.040Z,99430.69
2019-05-21T08:15:19.355Z,99439.49
2019-05-21T08:17:46.825Z,99445.78
2019-05-21T08:20:14.524Z,99439.95
2019-05-21T08:22:41.772Z,99440.42
2019-05-21T08:25:09.198Z,99449.42
2019-05-21T08:27:36.388Z,99449.49
2019-05-21T08:30:05.080Z,99459.70
2019-05-21T08:32:32.667Z,99463.14
2019-05-21T08:34:59.915Z,99466.93
2019-05-21T08:37:27.129Z,99468.77
2019-05-21T08:39:54.394Z,99468.88
2019-05-21T08:42:21.681Z,99476.38
2019-05-21T08:44:48.937Z,99473.29
2019-05-21T08:47:16.413Z,99480.27
2019-05-21T08:49:44.360Z,99470.45
2019-05-21T08:52:12.020Z,99485.56
2019-05-21T08:54:51.495Z,99480.42
2019-05-21T08:57:19.071Z,99485.05
2019-05-21T08:59:46.615Z,99484.31
2019-05-21T09:02:13.940Z,99497.07
2019-05-21T09:04:46.281Z,99501.64
2019-05-21T09:07:11.020Z,99509.24
2019-05-21T09:09:49.952Z,99503.91
2019-05-21T09:12:09.230Z,99498.45
2019-05-21T09:14:36.939Z,99497.35
2019-05-21T09:17:04.314Z,99503.89
2019-05-21T09:19:36.627Z,99509.39
2019-05-21T09:22:04.131Z,99511.28
2019-05-21T09:24:31.755Z,99515.41
2019-05-21T09:26:59.677Z,99513.00
2019-05-21T09:29:27.009Z,99523.06
2019-05-21T09:31:55.312Z,99523.98
2019-05-21T09:34:22.538Z,99530.03
2019-05-21T09:36:49.889Z,99524.30
2019-05-21T09:39:17.177Z,99528.61
2019-05-21T09:41:44.440Z,99529.56
2019-05-21T09:44:11.779Z,99534.27
2019-05-21T09:46:39.111Z,99538.48
2019-05-21T09:49:06.595Z,99545.75
2019-05-21T09:51:34.196Z,99541.86
2019-05-21T09:54:02.574Z,99551.74
2019-05-21T09:56:33.207Z,99550.97
2019-05-21T09:59:09.712Z,99554.86
2019-05-21T10:01:47.469Z,99546.25
2019-05-21T10:04:12.079Z,99560.78
2019-05-21T10:06:39.415Z,99559.73
2019-05-21T10:09:11.443Z,99563.89
2019-05-21T10:11:38.673Z,99563.95
2019-05-21T10:14:06.120Z,99571.05
2019-05-21T10:16:33.563Z,99568.53
2019-05-21T10:19:00.841Z,99560.88
2019-05-21T10:21:29.090Z,99567.55
2019-05-21T10:23:56.348Z,99569.07
2019-05-21T10:26:23.786Z,99577.42
2019-05-21T10:28:54.087Z,99584.02
2019-05-21T10:31:21.395Z,99582.28
2019-05-21T10:33:48.696Z,99588.91
2019-05-21T10:36:15.986Z,99578.63
2019-05-21T10:38:43.274Z,99596.97
2019-05-21T10:41:10.801Z,99601.14
2019-05-21T10:43:38.202Z,99596.31
2019-05-21T10:46:05.969Z,99600.08
2019-05-21T10:48:33.452Z,99598.09
2019-05-21T10:51:00.715Z,99599.09
2019-05-21T10:53:28.349Z,99601.18
2019-05-21T10:55:55.844Z,99605.63
2019-05-21T10:58:23.152Z,99604.80
2019-05-21T11:00:52.707Z,99612.83
2019-05-21T11:03:39.629Z,99618.96
2019-05-21T11:06:10.525Z,99627.15
2019-05-21T11:08:42.314Z,99630.55
2019-05-21T11:11:09.668Z,99633.95
2019-05-21T11:13:37.254Z,99637.80
2019-05-21T11:16:08.670Z,99637.70
2019-05-21T11:18:36.301Z,99648.06
2019-05-21T11:21:03.741Z,99651.21
2019-05-21T11:23:32.079Z,99661.08
2019-05-21T11:25:59.300Z,99654.52
2019-05-21T11:28:28.109Z,99658.66
2019-05-21T11:30:55.525Z,99662.41
2019-05-21T11:33:23.064Z,99660.55
2019-05-21T11:35:50.406Z,99668.71
2019-05-21T11:38:17.770Z,99670.12
2019-05-21T11:40:50.571Z,99673.42
2019-05-21T11:43:14.393Z,99679.77
2019-05-21T11:45:41.881Z,99680.70
2019-05-21T11:48:09.714Z,99680.37
2019-05-21T11:50:37.291Z,99684.45
2019-05-21T11:53:04.627Z,99680.70
2019-05-21T11:55:32.696Z,99685.28
2019-05-21T11:57:59.988Z,99684.50
2019-05-21T12:00:28.886Z,99695.33
2019-05-21T12:02:56.414Z,99701.70
2019-05-21T12:05:24.699Z,99701.02
2019-05-21T12:07:53.147Z,99699.00
2019-05-21T12:10:22.263Z,99708.73
2019-05-21T12:12:49.905Z,99714.78
2019-05-21T12:15:18.303Z,99712.91
2019-05-21T12:17:46.087Z,99708.16
2019-05-21T12:20:15.500Z,99712.14
2019-05-21T12:22:43.741Z,99717.78
2019-05-21T12:25:14.292Z,99714.39
2019-05-21T12:27:45.448Z,99717.17
2019-05-21T12:30:14.842Z,99722.64
2019-05-21T12:32:47.170Z,99729.63
2019-05-21T12:35:18.866Z,99737.68
2019-05-21T12:37:46.963Z,99734.02
2019-05-21T12:40:16.172Z,99753.58
2019-05-21T12:42:43.530Z,99747.31
2019-05-21T12:45:12.461Z,99754.23
2019-05-21T12:47:39.904Z,99761.48
2019-05-21T12:50:08.764Z,99762.59
2019-05-21T12:52:36.126Z,99774.05
2019-05-21T12:55:04.062Z,99773.07
2019-05-21T12:57:31.482Z,99774.05
2019-05-21T13:00:02.254Z,99778.43
2019-05-21T13:02:31.180Z,99790.89
2019-05-21T13:04:58.454Z,99786.25
2019-05-21T13:07:26.902Z,99785.81
2019-05-21T13:09:54.242Z,99792.63
2019-05-21T13:12:21.560Z,99790.20
2019-05-21T13:14:49.987Z,99796.94
2019-05-21T13:17:19.613Z,99801.13
2019-05-21T13:19:46.943Z,99800.41
2019-05-21T13:22:14.244Z,99797.80
2019-05-21T13:24:42.573Z,99806.11
2019-05-21T13:27:10.741Z,99796.63
2019-05-21T13:29:38.121Z,99812.61
2019-05-21T13:32:08.576Z,99817.69
2019-05-21T13:34:35.777Z,99828.59
2019-05-21T13:37:03.319Z,99829.64
2019-05-21T13:39:30.629Z,99832.86
2019-05-21T13:41:58.054Z,99842.45
2019-05-21T13:44:25.406Z,99842.53
2019-05-21T13:46:52.629Z,99851.41
2019-05-21T13:49:19.991Z,99854.98
2019-05-21T13:51:47.807Z,99858.31
2019-05-21T13:54:15.062Z,99859.33
2019-05-21T13:56:43.485Z,99856.56
2019-05-21T13:59:12.643Z,99856.63
2019-05-21T14:01:54.665Z,99864.34
2019-05-21T14:04:25.967Z,99864.70
2019-05-21T14:06:54.945Z,99867.06
2019-05-21T14:09:22.785Z,99875.72
2019-05-21T14:11:52.995Z,99883.34
2019-05-21T14:14:23.180Z,99875.11
2019-05-21T14:16:58.098Z,99874.44
2019-05-21T14:19:28.968Z,99873.42
2019-05-21T14:22:00.429Z,99881.91
2019-05-21T14:24:44.221Z,99882.73
2019-05-21T14:27:12.695Z,99874.32
2019-05-21T14:29:40.103Z,99878.23
2019-05-21T14:32:07.314Z,99870.90
2019-05-21T14:35:01.161Z,99884.22
2019-05-21T14:37:24.807Z,99887.28
2019-05-21T14:39:53.446Z,99893.78
2019-05-21T14:42:24.721Z,99892.52
2019-05-21T14:45:00.342Z,99893.59
2019-05-21T14:47:31.914Z,99895.13
2019-05-21T14:50:23.694Z,99900.11
2019-05-21T14:52:52.517Z,99901.06
2019-05-21T14:55:24.813Z,99906.05
2019-05-21T14:58:03.539Z,99909.19
2019-05-21T15:00:38.618Z,99907.66
2019-05-21T15:03:29.385Z,99906.04
2019-05-21T15:05:58.685Z,99916.77
2019-05-21T15:08:28.365Z,99912.27
2019-05-21T15:10:56.404Z,99917.61
2019-05-21T15:13:24.733Z,99921.02
2019-05-21T15:15:52.924Z,99924.32
2019-05-21T15:18:24.024Z,99925.98
2019-05-21T15:21:01.100Z,99918.64
2019-05-21T15:23:40.696Z,99923.48
2019-05-21T15:26:10.446Z,99923.28
2019-05-21T15:28:52.436Z,99925.52
2019-05-21T15:35:10.054Z,99926.59
2019-05-21T15:37:37.334Z,99932.59
2019-05-21T15:40:05.094Z,99939.24
2019-05-21T15:42:33.916Z,99938.68
2019-05-21T15:45:01.659Z,99942.45
2019-05-21T15:47:29.521Z,99942.35
2019-05-21T15:49:56.734Z,99947.89
2019-05-21T15:52:27.004Z,99942.69
2019-05-21T15:54:58.717Z,99949.09
2019-05-21T15:57:26.527Z,99949.33
2019-05-21T15:59:55.482Z,99958.31
2019-05-21T16:02:54.003Z,99959.52
2019-05-21T16:05:22.881Z,99962.95
2019-05-21T16:07:50.105Z,99966.44
2019-05-21T16:10:21.711Z,99966.50
2019-05-21T16:12:57.090Z,99971.95
2019-05-21T16:15:25.948Z,99969.70
2019-05-21T16:17:55.269Z,99970.77
2019-05-21T16:20:22.465Z,99972.41
2019-05-21T16:22:49.949Z,99971.34
2019-05-21T16:25:17.181Z,99973.24
2019-05-21T16:27:48.289Z,99979.76
2019-05-21T16:30:15.697Z,99979.99
2019-05-21T16:32:42.961Z,99978.16
2019-05-21T16:35:10.913Z,99985.97
2019-05-21T16:37:39.843Z,99986.11
2019-05-21T16:40:10.045Z,99990.11
2019-05-21T16:42:37.376Z,99989.24
2019-05-21T16:45:08.213Z,99993.05
2019-05-21T16:48:34.390Z,99994.22
2019-05-21T16:51:01.688Z,99994.16
2019-05-21T16:53:29.352Z,99994.99
2019-05-21T16:55:57.530Z,99995.13
2019-05-21T16:58:24.849Z,99999.37
2019-05-21T17:00:52.503Z,100005.98
2019-05-21T17:03:22.416Z,100010.78
2019-05-21T17:05:51.050Z,100011.48
2019-05-21T17:08:18.211Z,100013.20
2019-05-21T17:10:45.302Z,100016.13
2019-05-21T17:13:15.009Z,100017.24
2019-05-21T17:15:44.145Z,100017.43
2019-05-21T17:18:14.871Z,100015.99
2019-05-21T17:20:48.651Z,100019.66
2019-05-21T17:23:18.395Z,100031.15
2019-05-21T17:25:50.064Z,100028.87
2019-05-21T17:28:20.443Z,100031.94
2019-05-21T17:30:51.827Z,100028.50
2019-05-21T17:33:22.006Z,100036.31
2019-05-21T17:35:52.295Z,100042.25
2019-05-21T17:38:24.485Z,100041.52
2019-05-21T17:40:53.961Z,100042.02
2019-05-21T17:43:21.248Z,100041.52
2019-05-21T17:45:48.338Z,100047.24
2019-05-21T17:48:15.499Z,100043.19
2019-05-21T17:50:42.996Z,100041.52
2019-05-21T17:53:13.259Z,100051.01
2019-05-21T17:55:40.502Z,100054.55
2019-05-21T17:58:09.063Z,100054.22
2019-05-21T18:00:54.989Z,100056.36
2019-05-21T18:03:39.564Z,100060.72
2019-05-21T18:06:08.154Z,100073.38
2019-05-21T18:08:41.174Z,100069.46
2019-05-21T18:11:08.742Z,100070.40
2019-05-21T18:13:41.728Z,100074.96
2019-05-21T18:16:13.897Z,100085.23
2019-05-21T18:18:45.566Z,100084.48
2019-05-21T18:21:13.711Z,100093.59
2019-05-21T18:23:45.449Z,100096.57
2019-05-21T18:26:23.727Z,100097.87
2019-05-21T18:28:54.051Z,100101.55
2019-05-21T18:31:23.659Z,100104.38
2019-05-21T18:33:56.692Z,100115.39
2019-05-21T18:36:31.563Z,100115.39
2019-05-21T18:38:58.837Z,100116.17
2019-05-21T18:41:30.730Z,100118.63
2019-05-21T18:43:59.070Z,100123.38
2019-05-21T18:46:27.299Z,100123.38
2019-05-21T18:48:54.549Z,100132.17
2019-05-21T18:51:22.558Z,100133.33
2019-05-21T18:53:49.879Z,100138.66
2019-05-21T18:56:17.251Z,100143.73
2019-05-21T18:58:44.788Z,100145.87
2019-05-21T19:01:14.868Z,100151.92
2019-05-21T19:03:42.224Z,100156.30
2019-05-21T19:06:11.760Z,100162.95
2019-05-21T19:08:42.070Z,100159.36
2019-05-21T19:11:32.883Z,100169.56
2019-05-21T19:14:08.976Z,100171.26
2019-05-21T19:16:40.321Z,100171.23
2019-05-21T19:19:09.290Z,100179.36
2019-05-21T19:21:39.615Z,100187.91
2019-05-21T19:24:07.298Z,100190.08
2019-05-21T19:26:40.148Z,100193.24
2019-05-21T19:29:11.582Z,100197.74
2019-05-21T19:31:38.665Z,100201.87
2019-05-21T19:34:05.933Z,100209.21
2019-05-21T19:36:33.072Z,100216.56
2019-05-21T19:39:00.846Z,100217.12
2019-05-21T19:41:33.087Z,100215.97
2019-05-21T19:44:02.603Z,100213.40
2019-05-21T19:46:51.195Z,100221.17
2019-05-21T19:49:33.105Z,100215.59
2019-05-21T19:52:05.937Z,100223.83
2019-05-21T19:54:50.171Z,100230.34
2019-05-21T19:57:24.519Z,100223.33
2019-05-21T19:59:59.519Z,100231.02
2019-05-21T20:02:40.657Z,100233.44
2019-05-21T20:05:14.541Z,100228.77
2019-05-21T20:07:43.360Z,100230.63
2019-05-21T20:10:13.601Z,100236.52
2019-05-21T20:12:41.718Z,100233.33
2019-05-21T20:15:11.368Z,100237.14
2019-05-21T20:17:40.294Z,100241.53
2019-05-21T20:20:09.559Z,100236.31
2019-05-21T20:22:37.658Z,100232.45
2019-05-21T20:25:05.379Z,100240.11
2019-05-21T20:27:32.598Z,100231.16
2019-05-21T20:30:12.161Z,100236.98
2019-05-21T20:32:35.955Z,100233.48
2019-05-21T20:35:06.520Z,100239.38
2019-05-21T20:37:38.563Z,100243.71
2019-05-21T20:40:08.634Z,100234.39
2019-05-21T20:42:37.350Z,100240.87
2019-05-21T20:45:06.944Z,100238.00
2019-05-21T20:47:34.506Z,100239.02
2019-05-21T20:50:05.333Z,100236.02
2019-05-21T20:52:35.345Z,100242.36
2019-05-21T20:55:02.940Z,100243.41
2019-05-21T20:57:31.662Z,100248.73
2019-05-21T20:59:58.826Z,100249.45
2019-05-21T21:02:27.567Z,100246.94
2019-05-21T21:08:06.195Z,100249.20
2019-05-21T21:10:33.257Z,100254.41
2019-05-21T21:13:01.024Z,100252.73
2019-05-21T21:15:28.293Z,100252.52
2019-05-21T21:17:55.451Z,100262.38
2019-05-21T21:20:22.614Z,100253.14
2019-05-21T21:22:49.843Z,100261.33
2019-05-21T21:25:21.018Z,100254.36
2019-05-21T21:27:48.433Z,100258.05
2019-05-21T21:30:15.690Z,100259.48
2019-05-21T21:32:43.630Z,100260.91
2019-05-21T21:35:11.746Z,100270.64
2019-05-21T21:37:38.848Z,100267.64
2019-05-21T21:40:08.902Z,100269.12
2019-05-21T21:42:36.162Z,100269.95
2019-05-21T21:45:03.617Z,100263.87
2019-05-21T21:47:31.193Z,100262.51
2019-05-21T21:49:58.856Z,100268.61
2019-05-21T21:52:29.895Z,100272.56
2019-05-21T21:54:59.203Z,100265.17
2019-05-21T21:57:26.524Z,100267.59
2019-05-21T21:59:55.571Z,100263.07
2019-05-21T22:02:30.205Z,100259.81
2019-05-21T22:04:58.103Z,100269.73
2019-05-21T22:07:26.927Z,100268.11
2019-05-21T22:09:54.961Z,100264.63
2019-05-21T22:12:24.487Z,100268.89
2019-05-21T22:14:58.205Z,100269.14
2019-05-21T22:17:25.420Z,100271.37
2019-05-21T22:19:52.737Z,100263.00
2019-05-21T22:22:20.231Z,100271.41
2019-05-21T22:24:48.775Z,100266.42
2019-05-21T22:27:18.597Z,100275.01
2019-05-21T22:29:46.887Z,100269.72
2019-05-21T22:32:16.658Z,100275.28
2019-05-21T22:34:42.968Z,100278.00
2019-05-21T22:37:14.543Z,100280.43
2019-05-21T22:39:43.731Z,100277.14
2019-05-21T22:42:13.438Z,100277.30
2019-05-21T22:44:43.413Z,100275.41
2019-05-21T22:47:11.657Z,100276.34
2019-05-21T22:49:38.801Z,100271.94
2019-05-21T22:52:06.270Z,100274.09
2019-05-21T22:54:33.423Z,100268.98
2019-05-21T22:57:00.674Z,100271.38
2019-05-21T22:59:27.806Z,100275.40
2019-05-21T23:01:57.447Z,100271.37
2019-05-21T23:04:24.681Z,100273.52
2019-05-21T23:06:54.101Z,100269.89
2019-05-21T23:09:21.552Z,100267.27
2019-05-21T23:11:48.843Z,100267.53
2019-05-21T23:14:15.973Z,100267.39
2019-05-21T23:16:49.897Z,100266.83
2019-05-21T23:19:24.240Z,100259.65
2019-05-21T23:21:57.546Z,100260.32
2019-05-21T23:24:25.364Z,100261.55
2019-05-21T23:26:53.088Z,100259.81
2019-05-21T23:29:20.558Z,100259.00
2019-05-21T23:31:48.850Z,100259.98
2019-05-21T23:34:17.929Z,100252.55
2019-05-21T23:36:47.033Z,100257.28
2019-05-21T23:39:20.509Z,100260.83
2019-05-21T23:41:48.213Z,100260.47
2019-05-21T23:44:16.233Z,100260.95
2019-05-21T23:46:43.882Z,100260.52
2019-05-21T23:49:12.124Z,100263.34
2019-05-21T23:51:39.423Z,100256.17
2019-05-21T23:54:06.889Z,100256.64
2019-05-21T23:56:34.043Z,100256.23
2019-05-21T23:59:01.300Z,100247.74
